createdAt,value
2023-04-07T00:00:07.944Z,0.00
2023-04-07T00:01:07.730Z,0.00
2023-04-07T00:02:07.879Z,0.00
2023-04-07T00:03:07.942Z,0.00
2023-04-07T00:04:07.961Z,0.00
2023-04-07T00:05:07.856Z,0.00
2023-04-07T00:06:07.827Z,0.00
2023-04-07T00:07:07.800Z,0.00
2023-04-07T00:08:07.834Z,0.00
2023-04-07T00:09:07.829Z,0.00
2023-04-07T00:10:07.801Z,0.00
2023-04-07T00:11:07.827Z,0.00
2023-04-07T00:12:07.870Z,0.00
2023-04-07T00:13:07.900Z,0.00
2023-04-07T00:14:07.879Z,0.00
2023-04-07T00:15:07.903Z,0.00
2023-04-07T00:16:08.017Z,0.00
2023-04-07T00:17:07.927Z,0.00
2023-04-07T00:18:08.055Z,0.00
2023-04-07T00:19:07.956Z,0.00
2023-04-07T00:20:07.973Z,0.00
2023-04-07T00:21:08.000Z,0.00
2023-04-07T00:22:08.015Z,0.00
2023-04-07T00:23:07.988Z,0.00
2023-04-07T00:24:08.017Z,0.00
2023-04-07T00:25:07.997Z,0.00
2023-04-07T00:26:08.018Z,0.00
2023-04-07T00:27:08.032Z,0.00
2023-04-07T00:28:08.042Z,0.00
2023-04-07T00:29:08.080Z,0.00
2023-04-07T00:30:08.072Z,0.00
2023-04-07T00:31:08.155Z,0.00
2023-04-07T00:32:08.114Z,0.00
2023-04-07T00:33:09.722Z,0.00
2023-04-07T00:34:08.131Z,0.00
2023-04-07T00:35:08.158Z,0.00
2023-04-07T00:36:08.254Z,0.00
2023-04-07T00:37:08.191Z,0.00
2023-04-07T00:38:08.230Z,0.00
2023-04-07T00:39:08.210Z,0.00
2023-04-07T00:40:08.223Z,0.00
2023-04-07T00:41:08.244Z,0.00
2023-04-07T00:42:08.280Z,0.00
2023-04-07T00:43:08.291Z,0.00
2023-04-07T00:44:08.311Z,0.00
2023-04-07T00:45:08.330Z,0.00
2023-04-07T00:46:08.440Z,0.00
2023-04-07T00:47:08.370Z,0.00
2023-04-07T00:48:08.384Z,0.00
2023-04-07T00:49:11.054Z,0.00
2023-04-07T00:50:08.414Z,0.00
2023-04-07T00:51:08.429Z,0.00
2023-04-07T00:52:08.461Z,0.00
2023-04-07T00:53:08.503Z,0.00
2023-04-07T00:54:08.517Z,0.00
2023-04-07T00:55:08.493Z,0.00
2023-04-07T00:56:08.510Z,0.00
2023-04-07T00:57:08.519Z,0.00
2023-04-07T00:58:08.594Z,0.00
2023-04-07T00:59:08.575Z,0.00
2023-04-07T01:00:08.589Z,0.00
2023-04-07T01:01:08.605Z,0.00
2023-04-07T01:02:08.737Z,0.00
2023-04-07T01:03:08.973Z,0.00
2023-04-07T01:04:08.849Z,0.00
2023-04-07T01:05:08.757Z,0.00
2023-04-07T01:06:08.720Z,0.00
2023-04-07T01:07:08.732Z,0.00
2023-04-07T01:08:08.754Z,0.00
2023-04-07T01:09:08.769Z,0.00
2023-04-07T01:10:08.773Z,0.00
2023-04-07T01:11:08.762Z,0.00
2023-04-07T01:12:08.736Z,0.00
2023-04-07T01:13:08.771Z,0.00
2023-04-07T01:14:08.783Z,0.00
2023-04-07T01:15:08.810Z,0.00
2023-04-07T01:16:08.843Z,0.00
2023-04-07T01:17:08.794Z,0.00
2023-04-07T01:18:08.820Z,0.00
2023-04-07T01:19:08.857Z,0.00
2023-04-07T01:20:08.853Z,0.00
2023-04-07T01:21:08.848Z,0.00
2023-04-07T01:22:08.832Z,0.00
2023-04-07T01:23:08.855Z,0.00
2023-04-07T01:24:08.884Z,0.00
2023-04-07T01:25:08.896Z,0.00
2023-04-07T01:26:08.950Z,0.00
2023-04-07T01:27:08.917Z,0.00
2023-04-07T01:28:08.936Z,0.00
2023-04-07T01:29:08.965Z,0.00
2023-04-07T01:30:08.986Z,0.00
2023-04-07T01:31:09.001Z,0.00
2023-04-07T01:32:09.081Z,0.00
2023-04-07T01:33:09.067Z,0.00
2023-04-07T01:34:09.053Z,0.00
2023-04-07T01:35:09.061Z,0.00
2023-04-07T01:36:09.082Z,0.00
2023-04-07T01:37:09.182Z,0.00
2023-04-07T01:38:09.191Z,0.00
2023-04-07T01:39:09.062Z,0.00
2023-04-07T01:40:09.083Z,0.00
2023-04-07T01:41:09.069Z,0.00
2023-04-07T01:42:09.120Z,0.00
2023-04-07T01:43:09.090Z,0.00
2023-04-07T01:44:09.101Z,0.00
2023-04-07T01:45:09.128Z,0.00
2023-04-07T01:46:09.154Z,0.00
2023-04-07T01:47:09.205Z,0.00
2023-04-07T01:48:09.476Z,0.00
2023-04-07T01:49:09.216Z,0.00
2023-04-07T01:50:09.325Z,0.00
2023-04-07T01:51:09.322Z,0.00
2023-04-07T01:52:09.257Z,0.00
2023-04-07T01:53:09.269Z,0.00
2023-04-07T01:54:09.291Z,0.00
2023-04-07T01:55:09.306Z,0.00
2023-04-07T01:56:09.328Z,0.00
2023-04-07T01:57:09.325Z,0.00
2023-04-07T01:58:09.344Z,0.00
2023-04-07T01:59:09.304Z,0.00
2023-04-07T02:00:09.318Z,0.00
2023-04-07T02:01:09.374Z,0.00
2023-04-07T02:02:09.411Z,0.00
2023-04-07T02:03:09.517Z,0.00
2023-04-07T02:04:09.410Z,0.00
2023-04-07T02:05:09.396Z,0.00
2023-04-07T02:06:09.415Z,0.00
2023-04-07T02:07:09.435Z,0.00
2023-04-07T02:08:09.452Z,0.00
2023-04-07T02:09:09.480Z,0.00
2023-04-07T02:10:09.506Z,0.00
2023-04-07T02:11:09.545Z,0.00
2023-04-07T02:12:09.521Z,0.00
2023-04-07T02:13:09.542Z,0.00
2023-04-07T02:14:09.577Z,0.00
2023-04-07T02:15:09.542Z,0.00
2023-04-07T02:16:09.550Z,0.00
2023-04-07T02:17:09.541Z,0.00
2023-04-07T02:18:09.555Z,0.00
2023-04-07T02:19:09.583Z,0.00
2023-04-07T02:20:09.615Z,0.00
2023-04-07T02:21:09.654Z,0.00
2023-04-07T02:22:09.619Z,0.00
2023-04-07T02:23:09.636Z,0.00
2023-04-07T02:24:09.657Z,0.00
2023-04-07T02:25:09.669Z,0.00
2023-04-07T02:26:09.701Z,0.00
2023-04-07T02:27:09.723Z,0.00
2023-04-07T02:28:09.739Z,0.00
2023-04-07T02:29:09.762Z,0.00
2023-04-07T02:30:09.816Z,0.00
2023-04-07T02:31:09.798Z,0.00
2023-04-07T02:32:09.906Z,0.00
2023-04-07T02:33:09.817Z,0.00
2023-04-07T02:34:09.838Z,0.00
2023-04-07T02:35:09.824Z,0.00
2023-04-07T02:36:09.866Z,0.00
2023-04-07T02:37:09.894Z,0.00
2023-04-07T02:38:09.869Z,0.00
2023-04-07T02:39:09.846Z,0.00
2023-04-07T02:40:09.881Z,0.00
2023-04-07T02:41:09.904Z,0.00
2023-04-07T02:42:10.150Z,0.00
2023-04-07T02:43:09.935Z,0.00
2023-04-07T02:44:09.923Z,0.00
2023-04-07T02:45:09.937Z,0.00
2023-04-07T02:46:10.079Z,0.00
2023-04-07T02:47:09.945Z,0.00
2023-04-07T02:48:09.971Z,0.00
2023-04-07T02:49:09.992Z,0.00
2023-04-07T02:50:10.029Z,0.00
2023-04-07T02:51:10.079Z,0.00
2023-04-07T02:52:10.048Z,0.00
2023-04-07T02:53:10.065Z,0.00
2023-04-07T02:54:10.075Z,0.00
2023-04-07T02:55:10.101Z,0.00
2023-04-07T02:56:10.121Z,0.00
2023-04-07T02:57:10.131Z,0.00
2023-04-07T02:58:10.384Z,0.00
2023-04-07T02:59:10.176Z,0.00
2023-04-07T03:00:10.203Z,0.00
2023-04-07T03:01:10.236Z,0.00
2023-04-07T03:02:10.395Z,0.00
2023-04-07T03:03:10.373Z,0.00
2023-04-07T03:04:10.387Z,0.00
2023-04-07T03:05:10.244Z,0.00
2023-04-07T03:06:10.321Z,0.00
2023-04-07T03:07:10.290Z,0.00
2023-04-07T03:08:12.705Z,0.00
2023-04-07T03:09:10.305Z,0.00
2023-04-07T03:10:10.572Z,0.00
2023-04-07T03:11:10.340Z,0.00
2023-04-07T03:12:10.318Z,0.00
2023-04-07T03:13:10.341Z,0.00
2023-04-07T03:14:10.355Z,0.00
2023-04-07T03:15:10.376Z,0.00
2023-04-07T03:16:10.409Z,0.00
2023-04-07T03:17:10.471Z,0.00
2023-04-07T03:18:10.488Z,0.00
2023-04-07T03:19:10.486Z,0.00
2023-04-07T03:20:10.479Z,0.00
2023-04-07T03:21:10.480Z,0.00
2023-04-07T03:22:10.492Z,0.00
2023-04-07T03:23:10.523Z,0.00
2023-04-07T03:24:10.532Z,0.00
2023-04-07T03:25:10.547Z,0.00
2023-04-07T03:26:10.578Z,0.00
2023-04-07T03:27:10.555Z,0.00
2023-04-07T03:28:10.801Z,0.00
2023-04-07T03:29:10.592Z,0.00
2023-04-07T03:30:10.620Z,0.00
2023-04-07T03:31:10.725Z,0.00
2023-04-07T03:32:10.650Z,0.00
2023-04-07T03:33:10.678Z,0.00
2023-04-07T03:34:10.728Z,0.00
2023-04-07T03:35:10.696Z,0.00
2023-04-07T03:36:10.776Z,0.00
2023-04-07T03:37:10.745Z,0.00
2023-04-07T03:38:10.766Z,0.00
2023-04-07T03:39:10.781Z,0.00
2023-04-07T03:40:10.802Z,0.00
2023-04-07T03:41:10.826Z,0.00
2023-04-07T03:42:10.837Z,0.00
2023-04-07T03:43:10.850Z,0.00
2023-04-07T03:44:10.876Z,0.00
2023-04-07T03:45:10.889Z,0.00
2023-04-07T03:46:11.005Z,0.00
2023-04-07T03:47:10.914Z,0.00
2023-04-07T03:48:10.900Z,0.00
2023-04-07T03:49:10.904Z,0.00
2023-04-07T03:50:10.937Z,0.00
2023-04-07T03:51:10.920Z,0.00
2023-04-07T03:52:10.896Z,0.00
2023-04-07T03:53:10.930Z,0.00
2023-04-07T03:54:10.948Z,0.00
2023-04-07T03:55:10.978Z,0.00
2023-04-07T03:56:11.006Z,0.00
2023-04-07T03:57:11.022Z,0.00
2023-04-07T03:58:11.045Z,0.00
2023-04-07T03:59:11.065Z,0.00
2023-04-07T04:00:11.088Z,0.00
2023-04-07T04:01:11.109Z,0.00
2023-04-07T04:02:11.149Z,0.00
2023-04-07T04:03:11.197Z,0.00
2023-04-07T04:04:11.305Z,0.00
2023-04-07T04:05:11.111Z,0.00
2023-04-07T04:06:11.175Z,0.00
2023-04-07T04:07:11.140Z,0.00
2023-04-07T04:08:11.177Z,0.00
2023-04-07T04:09:11.153Z,0.00
2023-04-07T04:10:11.178Z,0.00
2023-04-07T04:11:11.218Z,0.00
2023-04-07T04:12:11.198Z,0.00
2023-04-07T04:13:11.216Z,0.00
2023-04-07T04:14:11.238Z,0.00
2023-04-07T04:15:11.251Z,0.00
2023-04-07T04:16:13.851Z,0.00
2023-04-07T04:17:11.251Z,0.00
2023-04-07T04:18:11.255Z,0.00
2023-04-07T04:19:11.281Z,0.00
2023-04-07T04:20:11.298Z,0.00
2023-04-07T04:21:11.336Z,0.00
2023-04-07T04:22:11.398Z,0.00
2023-04-07T04:23:11.326Z,0.00
2023-04-07T04:24:11.337Z,0.00
2023-04-07T04:25:11.972Z,0.00
2023-04-07T04:26:11.361Z,0.00
2023-04-07T04:27:11.393Z,0.00
2023-04-07T04:28:11.408Z,0.00
2023-04-07T04:29:11.423Z,0.00
2023-04-07T04:30:11.452Z,0.00
2023-04-07T04:31:11.526Z,0.00
2023-04-07T04:32:11.465Z,0.00
2023-04-07T04:33:11.480Z,0.00
2023-04-07T04:34:11.511Z,0.00
2023-04-07T04:35:11.492Z,0.00
2023-04-07T04:36:11.502Z,0.00
2023-04-07T04:37:11.480Z,0.00
2023-04-07T04:38:11.523Z,0.00
2023-04-07T04:39:11.497Z,0.00
2023-04-07T04:40:11.527Z,0.00
2023-04-07T04:41:11.556Z,0.00
2023-04-07T04:42:11.575Z,0.00
2023-04-07T04:43:11.593Z,0.00
2023-04-07T04:44:11.646Z,0.00
2023-04-07T04:45:11.606Z,0.00
2023-04-07T04:46:11.630Z,0.00
2023-04-07T04:47:11.668Z,0.00
2023-04-07T04:48:11.655Z,0.00
2023-04-07T04:49:11.637Z,0.00
2023-04-07T04:50:11.652Z,0.00
2023-04-07T04:51:11.692Z,0.00
2023-04-07T04:52:11.692Z,0.00
2023-04-07T04:53:11.672Z,0.00
2023-04-07T04:54:11.709Z,0.00
2023-04-07T04:55:14.015Z,0.00
2023-04-07T04:56:11.694Z,0.00
2023-04-07T04:57:11.713Z,0.00
2023-04-07T04:58:11.722Z,0.00
2023-04-07T04:59:11.742Z,0.00
2023-04-07T05:00:11.784Z,0.00
2023-04-07T05:02:37.956Z,5.62
2023-04-07T05:03:37.827Z,5.62
2023-04-07T05:04:37.823Z,5.62
2023-04-07T05:05:37.712Z,5.62
2023-04-07T05:06:37.733Z,5.62
2023-04-07T05:07:37.739Z,5.62
2023-04-07T05:08:37.768Z,5.62
2023-04-07T05:09:37.782Z,5.62
2023-04-07T05:10:37.771Z,5.62
2023-04-07T05:11:37.789Z,5.62
2023-04-07T05:12:37.831Z,5.62
2023-04-07T05:13:37.855Z,5.62
2023-04-07T05:14:37.881Z,5.62
2023-04-07T05:15:37.910Z,5.62
2023-04-07T05:16:37.996Z,5.62
2023-04-07T05:17:38.011Z,5.62
2023-04-07T05:18:37.948Z,11.25
2023-04-07T05:19:37.972Z,11.25
2023-04-07T05:20:37.997Z,11.25
2023-04-07T05:21:38.047Z,11.25
2023-04-07T05:22:38.037Z,11.25
2023-04-07T05:23:38.024Z,11.25
2023-04-07T05:24:38.047Z,11.25
2023-04-07T05:25:38.098Z,11.25
2023-04-07T05:26:38.085Z,11.25
2023-04-07T05:27:38.119Z,11.25
2023-04-07T05:28:38.111Z,11.25
2023-04-07T05:29:38.132Z,11.25
2023-04-07T05:30:38.152Z,11.25
2023-04-07T05:31:38.198Z,11.25
2023-04-07T05:32:38.242Z,11.25
2023-04-07T05:33:38.211Z,11.25
2023-04-07T05:34:38.236Z,11.25
2023-04-07T05:35:38.251Z,11.25
2023-04-07T05:36:38.269Z,16.88
2023-04-07T05:37:38.295Z,16.88
2023-04-07T05:38:38.310Z,11.25
2023-04-07T05:39:38.571Z,16.88
2023-04-07T05:40:38.591Z,16.88
2023-04-07T05:41:38.409Z,16.88
2023-04-07T05:42:38.408Z,16.88
2023-04-07T05:43:38.424Z,16.88
2023-04-07T05:44:38.447Z,16.88
2023-04-07T05:45:38.520Z,16.88
2023-04-07T05:46:38.500Z,16.88
2023-04-07T05:47:38.556Z,22.50
2023-04-07T05:48:38.531Z,22.50
2023-04-07T05:49:38.554Z,22.50
2023-04-07T05:50:38.584Z,22.50
2023-04-07T05:51:38.827Z,22.50
2023-04-07T05:52:38.666Z,22.50
2023-04-07T05:53:38.644Z,22.50
2023-04-07T05:54:38.667Z,22.50
2023-04-07T05:55:38.692Z,22.50
2023-04-07T05:56:38.711Z,22.50
2023-04-07T05:57:38.782Z,28.12
2023-04-07T05:58:38.722Z,28.12
2023-04-07T05:59:38.745Z,28.12
2023-04-07T06:00:38.762Z,28.12
2023-04-07T06:01:38.980Z,28.12
2023-04-07T06:02:39.055Z,28.12
2023-04-07T06:03:39.099Z,28.12
2023-04-07T06:04:38.853Z,22.50
2023-04-07T06:05:38.933Z,22.50
2023-04-07T06:06:38.873Z,22.50
2023-04-07T06:07:38.915Z,22.50
2023-04-07T06:08:38.900Z,22.50
2023-04-07T06:09:38.911Z,22.50
2023-04-07T06:10:38.895Z,22.50
2023-04-07T06:11:38.920Z,28.12
2023-04-07T06:12:38.951Z,28.12
2023-04-07T06:13:39.002Z,33.75
2023-04-07T06:14:39.002Z,33.75
2023-04-07T06:15:38.996Z,39.38
2023-04-07T06:16:39.052Z,39.38
2023-04-07T06:17:39.068Z,39.38
2023-04-07T06:18:39.036Z,39.38
2023-04-07T06:19:39.020Z,39.38
2023-04-07T06:20:39.023Z,39.38
2023-04-07T06:21:39.004Z,39.38
2023-04-07T06:22:39.041Z,39.38
2023-04-07T06:23:39.015Z,39.38
2023-04-07T06:24:39.028Z,39.38
2023-04-07T06:25:39.026Z,39.38
2023-04-07T06:26:39.045Z,39.38
2023-04-07T06:27:39.090Z,39.38
2023-04-07T06:28:39.073Z,39.38
2023-04-07T06:29:39.115Z,39.38
2023-04-07T06:30:39.108Z,39.38
2023-04-07T06:31:39.106Z,39.38
2023-04-07T06:32:39.183Z,33.75
2023-04-07T06:33:39.134Z,33.75
2023-04-07T06:34:39.156Z,33.75
2023-04-07T06:35:39.180Z,33.75
2023-04-07T06:36:39.216Z,39.38
2023-04-07T06:37:39.232Z,39.38
2023-04-07T06:38:39.219Z,39.38
2023-04-07T06:39:39.241Z,39.38
2023-04-07T06:40:39.280Z,39.38
2023-04-07T06:41:39.494Z,45.00
2023-04-07T06:42:39.390Z,45.00
2023-04-07T06:43:39.582Z,45.00
2023-04-07T06:44:39.384Z,45.00
2023-04-07T06:45:39.412Z,45.00
2023-04-07T06:46:39.456Z,50.62
2023-04-07T06:47:39.466Z,50.62
2023-04-07T06:48:39.405Z,50.62
2023-04-07T06:49:39.442Z,56.25
2023-04-07T06:50:39.429Z,56.25
2023-04-07T06:51:39.447Z,56.25
2023-04-07T06:52:39.489Z,56.25
2023-04-07T06:53:39.468Z,56.25
2023-04-07T06:54:39.494Z,56.25
2023-04-07T06:55:39.744Z,56.25
2023-04-07T06:56:39.538Z,56.25
2023-04-07T06:57:39.593Z,56.25
2023-04-07T06:58:39.576Z,61.88
2023-04-07T06:59:39.593Z,61.88
2023-04-07T07:00:39.629Z,61.88
2023-04-07T07:01:40.045Z,61.88
2023-04-07T07:02:39.859Z,61.88
2023-04-07T07:03:39.720Z,61.88
2023-04-07T07:04:39.645Z,61.88
2023-04-07T07:05:39.675Z,61.88
2023-04-07T07:06:39.696Z,61.88
2023-04-07T07:07:39.740Z,61.88
2023-04-07T07:08:39.717Z,61.88
2023-04-07T07:09:39.740Z,61.88
2023-04-07T07:10:39.772Z,67.50
2023-04-07T07:11:39.805Z,67.50
2023-04-07T07:12:39.840Z,67.50
2023-04-07T07:13:39.829Z,67.50
2023-04-07T07:14:39.823Z,67.50
2023-04-07T07:15:39.891Z,67.50
2023-04-07T07:16:39.867Z,67.50
2023-04-07T07:17:40.007Z,73.12
2023-04-07T07:18:40.109Z,73.12
2023-04-07T07:19:40.130Z,73.12
2023-04-07T07:20:39.924Z,73.12
2023-04-07T07:21:39.950Z,78.75
2023-04-07T07:22:39.950Z,78.75
2023-04-07T07:23:39.969Z,78.75
2023-04-07T07:24:39.991Z,78.75
2023-04-07T07:25:40.006Z,84.38
2023-04-07T07:26:40.038Z,84.38
2023-04-07T07:27:40.071Z,84.38
2023-04-07T07:28:40.100Z,84.38
2023-04-07T07:29:40.118Z,90.00
2023-04-07T07:30:40.108Z,90.00
2023-04-07T07:31:40.431Z,90.00
2023-04-07T07:32:40.165Z,90.00
2023-04-07T07:33:40.280Z,90.00
2023-04-07T07:34:40.145Z,95.62
2023-04-07T07:35:40.191Z,95.62
2023-04-07T07:36:40.199Z,95.62
2023-04-07T07:37:40.225Z,95.62
2023-04-07T07:38:40.240Z,101.25
2023-04-07T07:39:40.276Z,101.25
2023-04-07T07:40:40.280Z,101.25
2023-04-07T07:41:40.266Z,101.25
2023-04-07T07:42:40.285Z,106.88
2023-04-07T07:43:40.305Z,106.88
2023-04-07T07:44:40.340Z,106.88
2023-04-07T07:45:40.347Z,112.50
2023-04-07T07:46:40.414Z,112.50
2023-04-07T07:47:40.417Z,112.50
2023-04-07T07:48:40.383Z,118.12
2023-04-07T07:49:40.428Z,118.12
2023-04-07T07:50:40.433Z,118.12
2023-04-07T07:51:40.516Z,123.75
2023-04-07T07:52:40.441Z,123.75
2023-04-07T07:57:58.220Z,129.38
2023-04-07T08:00:24.149Z,135.00
2023-04-07T08:01:24.094Z,135.00
2023-04-07T08:02:24.160Z,135.00
2023-04-07T08:03:24.207Z,135.00
2023-04-07T08:04:24.257Z,135.00
2023-04-07T08:05:24.166Z,129.38
2023-04-07T08:06:24.159Z,129.38
2023-04-07T08:07:24.157Z,129.38
2023-04-07T08:08:24.191Z,129.38
2023-04-07T08:09:24.224Z,129.38
2023-04-07T08:10:24.255Z,123.75
2023-04-07T08:11:24.250Z,123.75
2023-04-07T08:12:24.275Z,123.75
2023-04-07T08:13:24.314Z,123.75
2023-04-07T08:14:24.291Z,123.75
2023-04-07T08:15:24.541Z,123.75
2023-04-07T08:16:24.360Z,129.38
2023-04-07T08:17:24.420Z,135.00
2023-04-07T08:18:24.377Z,135.00
2023-04-07T08:19:24.400Z,140.62
2023-04-07T08:20:24.471Z,140.62
2023-04-07T08:21:24.482Z,140.62
2023-04-07T08:22:24.462Z,146.25
2023-04-07T08:23:24.499Z,151.88
2023-04-07T08:24:24.480Z,151.88
2023-04-07T08:25:24.509Z,151.88
2023-04-07T08:26:24.526Z,151.88
2023-04-07T08:27:24.558Z,157.50
2023-04-07T08:28:25.226Z,163.12
2023-04-07T08:29:24.572Z,163.12
2023-04-07T08:30:24.658Z,168.75
2023-04-07T08:31:24.700Z,168.75
2023-04-07T08:32:24.691Z,174.38
2023-04-07T08:33:24.646Z,174.38
2023-04-07T08:34:24.678Z,174.38
2023-04-07T08:35:24.699Z,174.38
2023-04-07T08:36:24.719Z,180.00
2023-04-07T08:37:24.949Z,185.62
2023-04-07T08:38:24.769Z,185.62
2023-04-07T08:39:24.763Z,180.00
2023-04-07T08:40:24.747Z,180.00
2023-04-07T08:41:24.743Z,180.00
2023-04-07T08:42:24.726Z,180.00
2023-04-07T08:43:24.729Z,174.38
2023-04-07T08:44:24.752Z,174.38
2023-04-07T08:45:24.773Z,168.75
2023-04-07T08:46:24.920Z,163.12
2023-04-07T08:47:24.851Z,163.12
2023-04-07T08:48:24.816Z,163.12
2023-04-07T08:49:24.831Z,168.75
2023-04-07T08:50:24.865Z,163.12
2023-04-07T08:51:24.909Z,157.50
2023-04-07T08:52:24.914Z,163.12
2023-04-07T08:53:24.971Z,174.38
2023-04-07T08:54:24.952Z,180.00
2023-04-07T08:55:24.978Z,185.62
2023-04-07T08:56:25.000Z,185.62
2023-04-07T08:57:25.020Z,185.62
2023-04-07T08:58:25.071Z,185.62
2023-04-07T08:59:25.047Z,185.62
2023-04-07T09:00:25.085Z,185.62
2023-04-07T09:01:25.135Z,185.62
2023-04-07T09:02:25.274Z,185.62
2023-04-07T09:03:25.227Z,185.62
2023-04-07T09:04:25.184Z,185.62
2023-04-07T09:05:25.222Z,185.62
2023-04-07T09:06:25.252Z,185.62
2023-04-07T09:07:25.279Z,174.38
2023-04-07T09:08:25.320Z,163.12
2023-04-07T09:09:25.321Z,168.75
2023-04-07T09:10:25.292Z,180.00
2023-04-07T09:11:25.316Z,191.25
2023-04-07T09:12:25.569Z,196.88
2023-04-07T09:13:25.360Z,196.88
2023-04-07T09:14:25.349Z,202.50
2023-04-07T09:15:25.380Z,196.88
2023-04-07T09:16:25.451Z,185.62
2023-04-07T09:17:25.418Z,174.38
2023-04-07T09:18:25.412Z,168.75
2023-04-07T09:19:25.434Z,168.75
2023-04-07T09:20:25.472Z,180.00
2023-04-07T09:21:25.517Z,191.25
2023-04-07T09:22:25.499Z,185.62
2023-04-07T09:23:25.530Z,174.38
2023-04-07T09:24:25.573Z,168.75
2023-04-07T09:25:25.591Z,180.00
2023-04-07T09:26:25.612Z,191.25
2023-04-07T09:27:25.587Z,185.62
2023-04-07T09:28:25.591Z,174.38
2023-04-07T09:29:25.577Z,168.75
2023-04-07T09:30:25.601Z,180.00
2023-04-07T09:31:25.658Z,196.88
2023-04-07T09:32:25.686Z,196.88
2023-04-07T09:33:25.684Z,208.12
2023-04-07T09:34:25.714Z,208.12
2023-04-07T09:35:25.712Z,213.75
2023-04-07T09:36:25.736Z,213.75
2023-04-07T09:37:25.766Z,213.75
2023-04-07T09:38:25.799Z,213.75
2023-04-07T09:39:25.788Z,208.12
2023-04-07T09:40:25.821Z,202.50
2023-04-07T09:41:26.061Z,208.12
2023-04-07T09:42:25.898Z,202.50
2023-04-07T09:43:25.842Z,202.50
2023-04-07T09:44:25.866Z,202.50
2023-04-07T09:45:33.852Z,202.50
2023-04-07T09:46:26.271Z,208.12
2023-04-07T09:47:25.927Z,208.12
2023-04-07T09:48:25.907Z,213.75
2023-04-07T09:49:25.934Z,213.75
2023-04-07T09:50:25.913Z,213.75
2023-04-07T09:51:25.899Z,219.38
2023-04-07T09:52:25.949Z,225.00
2023-04-07T09:53:25.930Z,230.62
2023-04-07T09:54:25.955Z,225.00
2023-04-07T09:55:25.995Z,219.38
2023-04-07T09:56:26.022Z,208.12
2023-04-07T09:57:26.083Z,191.25
2023-04-07T09:58:26.064Z,185.62
2023-04-07T09:59:26.091Z,191.25
2023-04-07T10:00:26.119Z,191.25
2023-04-07T10:01:26.173Z,191.25
2023-04-07T10:02:26.251Z,185.62
2023-04-07T10:03:26.188Z,180.00
2023-04-07T10:04:26.504Z,174.38
2023-04-07T10:05:26.199Z,163.12
2023-04-07T10:06:26.222Z,168.75
2023-04-07T10:07:26.271Z,163.12
2023-04-07T10:08:26.251Z,151.88
2023-04-07T10:09:26.298Z,129.38
2023-04-07T10:10:26.293Z,112.50
2023-04-07T10:11:26.279Z,106.88
2023-04-07T10:12:26.312Z,112.50
2023-04-07T10:13:26.397Z,123.75
2023-04-07T10:14:26.328Z,135.00
2023-04-07T10:15:26.354Z,146.25
2023-04-07T10:16:26.357Z,163.12
2023-04-07T10:17:26.416Z,168.75
2023-04-07T10:18:26.356Z,157.50
2023-04-07T10:19:26.387Z,146.25
2023-04-07T10:20:26.370Z,129.38
2023-04-07T10:21:26.394Z,118.12
2023-04-07T10:22:26.429Z,106.88
2023-04-07T10:23:26.410Z,95.62
2023-04-07T10:24:26.433Z,90.00
2023-04-07T10:25:26.459Z,95.62
2023-04-07T10:26:26.482Z,101.25
2023-04-07T10:27:26.523Z,112.50
2023-04-07T10:28:26.545Z,118.12
2023-04-07T10:29:26.590Z,123.75
2023-04-07T10:30:26.570Z,123.75
2023-04-07T10:31:26.645Z,123.75
2023-04-07T10:32:26.582Z,118.12
2023-04-07T10:33:26.565Z,118.12
2023-04-07T10:34:26.589Z,112.50
2023-04-07T10:35:26.643Z,112.50
2023-04-07T10:36:26.633Z,112.50
2023-04-07T10:37:26.665Z,123.75
2023-04-07T10:38:26.661Z,135.00
2023-04-07T10:39:26.688Z,146.25
2023-04-07T10:40:26.682Z,163.12
2023-04-07T10:41:26.703Z,185.62
2023-04-07T10:42:26.791Z,202.50
2023-04-07T10:43:26.749Z,219.38
2023-04-07T10:44:26.773Z,236.25
2023-04-07T10:45:26.834Z,241.88
2023-04-07T10:46:26.840Z,236.25
2023-04-07T10:47:26.866Z,230.62
2023-04-07T10:48:26.849Z,225.00
2023-04-07T10:49:26.866Z,230.62
2023-04-07T10:50:26.891Z,236.25
2023-04-07T10:51:26.912Z,241.88
2023-04-07T10:52:27.194Z,241.88
2023-04-07T10:53:26.947Z,241.88
2023-04-07T10:54:29.315Z,247.50
2023-04-07T10:55:26.975Z,253.12
2023-04-07T10:56:26.998Z,253.12
2023-04-07T10:57:27.036Z,253.12
2023-04-07T10:58:27.013Z,247.50
2023-04-07T10:59:27.038Z,236.25
2023-04-07T11:00:27.070Z,225.00
2023-04-07T11:01:27.191Z,219.38
2023-04-07T11:02:27.320Z,213.75
2023-04-07T11:03:27.224Z,208.12
2023-04-07T11:04:27.261Z,202.50
2023-04-07T11:05:27.137Z,202.50
2023-04-07T11:06:27.171Z,202.50
2023-04-07T11:07:27.197Z,191.25
2023-04-07T11:08:27.218Z,185.62
2023-04-07T11:09:27.250Z,185.62
2023-04-07T11:10:27.279Z,191.25
2023-04-07T11:11:27.267Z,196.88
2023-04-07T11:12:27.312Z,196.88
2023-04-07T11:13:27.289Z,202.50
2023-04-07T11:14:27.313Z,202.50
2023-04-07T11:15:27.335Z,202.50
2023-04-07T11:16:27.433Z,208.12
2023-04-07T11:17:27.472Z,208.12
2023-04-07T11:18:27.459Z,208.12
2023-04-07T11:19:27.437Z,213.75
2023-04-07T11:20:27.438Z,213.75
2023-04-07T11:21:27.497Z,219.38
2023-04-07T11:22:30.345Z,225.00
2023-04-07T11:23:27.450Z,230.62
2023-04-07T11:24:27.483Z,236.25
2023-04-07T11:25:27.485Z,236.25
2023-04-07T11:26:27.702Z,236.25
2023-04-07T11:27:27.464Z,236.25
2023-04-07T11:28:27.451Z,236.25
2023-04-07T11:29:27.440Z,230.62
2023-04-07T11:30:27.458Z,230.62
2023-04-07T11:31:27.573Z,230.62
2023-04-07T11:32:27.513Z,236.25
2023-04-07T11:33:27.521Z,236.25
2023-04-07T11:34:27.502Z,241.88
2023-04-07T11:35:27.527Z,241.88
2023-04-07T11:36:27.558Z,241.88
2023-04-07T11:37:27.544Z,236.25
2023-04-07T11:38:27.586Z,241.88
2023-04-07T11:39:27.570Z,241.88
2023-04-07T11:40:27.602Z,247.50
2023-04-07T11:41:27.653Z,253.12
2023-04-07T11:42:27.636Z,258.75
2023-04-07T11:43:27.673Z,258.75
2023-04-07T11:44:27.690Z,258.75
2023-04-07T11:45:27.726Z,253.12
2023-04-07T11:46:27.755Z,236.25
2023-04-07T11:47:27.734Z,213.75
2023-04-07T11:48:27.998Z,191.25
2023-04-07T11:49:27.783Z,174.38
2023-04-07T11:50:27.765Z,157.50
2023-04-07T11:51:27.788Z,146.25
2023-04-07T11:52:27.815Z,135.00
2023-04-07T11:53:27.843Z,135.00
2023-04-07T11:54:27.875Z,135.00
2023-04-07T11:55:27.920Z,135.00
2023-04-07T11:56:27.903Z,135.00
2023-04-07T11:57:27.930Z,135.00
2023-04-07T11:58:27.953Z,135.00
2023-04-07T11:59:27.983Z,135.00
2023-04-07T12:00:27.976Z,135.00
2023-04-07T12:01:28.032Z,135.00
2023-04-07T12:02:28.148Z,129.38
2023-04-07T12:03:28.169Z,129.38
2023-04-07T12:04:28.235Z,129.38
2023-04-07T12:05:28.082Z,129.38
2023-04-07T12:06:28.056Z,129.38
2023-04-07T12:07:28.429Z,129.38
2023-04-07T12:08:28.094Z,135.00
2023-04-07T12:09:28.121Z,135.00
2023-04-07T12:10:28.145Z,140.62
2023-04-07T12:11:28.204Z,146.25
2023-04-07T12:12:28.178Z,146.25
2023-04-07T12:13:28.208Z,151.88
2023-04-07T12:14:28.241Z,151.88
2023-04-07T12:15:28.227Z,146.25
2023-04-07T12:16:28.269Z,146.25
2023-04-07T12:17:28.295Z,146.25
2023-04-07T12:18:28.284Z,146.25
2023-04-07T12:19:28.329Z,146.25
2023-04-07T12:20:28.325Z,157.50
2023-04-07T12:21:28.340Z,168.75
2023-04-07T12:22:28.327Z,180.00
2023-04-07T12:23:28.346Z,185.62
2023-04-07T12:24:28.377Z,191.25
2023-04-07T12:25:28.440Z,191.25
2023-04-07T12:26:28.374Z,191.25
2023-04-07T12:27:41.643Z,196.88
2023-04-07T12:28:28.413Z,202.50
2023-04-07T12:29:28.436Z,213.75
2023-04-07T12:30:28.455Z,225.00
2023-04-07T12:31:28.529Z,236.25
2023-04-07T12:32:28.509Z,253.12
2023-04-07T12:33:28.492Z,270.00
2023-04-07T12:34:28.512Z,292.50
2023-04-07T12:35:28.651Z,303.75
2023-04-07T12:36:28.572Z,309.38
2023-04-07T12:37:28.574Z,309.38
2023-04-07T12:38:28.550Z,303.75
2023-04-07T12:39:28.601Z,292.50
2023-04-07T12:40:28.810Z,11.25
2023-04-07T12:41:28.575Z,11.25
2023-04-07T12:42:28.593Z,11.25
2023-04-07T12:43:28.626Z,11.25
2023-04-07T12:44:28.647Z,16.88
2023-04-07T12:45:28.666Z,16.88
2023-04-07T12:46:28.773Z,16.88
2023-04-07T12:47:28.723Z,16.88
2023-04-07T12:48:28.722Z,16.88
2023-04-07T12:49:28.724Z,16.88
2023-04-07T12:50:28.713Z,16.88
2023-04-07T12:51:28.755Z,16.88
2023-04-07T12:52:28.731Z,16.88
2023-04-07T12:53:28.781Z,16.88
2023-04-07T12:54:28.760Z,11.25
2023-04-07T12:55:28.783Z,11.25
2023-04-07T12:56:28.840Z,11.25
2023-04-07T12:57:28.818Z,11.25
2023-04-07T12:58:28.840Z,11.25
2023-04-07T12:59:28.852Z,11.25
2023-04-07T13:00:28.875Z,11.25